Time;durP1;ratioP1;P1;durP2;ratioP2;P2;SDS_P1;SDS_P2;PMS_P1;PMS_P2;Temp;Humidity;BMP_temperature;BMP_pressure;BME280_temperature;BME280_humidity;BME280_pressure;Samples;Min_cycle;Max_cycle;Signal;HPM_P1;HPM_P2
2021/12/23 00:01:12;;;;;;;18.17;8.70;;;-0.10;99.90;;;;;;5000741;28;20485;-68
2021/12/23 00:03:38;;;;;;;18.47;9.03;;;-0.10;99.90;;;;;;4999600;28;20058;-68
2021/12/23 00:06:06;;;;;;;16.20;8.07;;;-0.10;99.90;;;;;;4998538;28;20038;-68
2021/12/23 00:08:33;;;;;;;19.38;8.18;;;-0.10;99.90;;;;;;5000295;28;20635;-68
2021/12/23 00:10:59;;;;;;;14.43;7.90;;;0.00;99.90;;;;;;5001559;28;20123;-68
2021/12/23 00:13:25;;;;;;;15.20;8.70;;;0.00;99.90;;;;;;4997578;28;20080;-68
2021/12/23 00:18:42;;;;;;;17.35;9.05;;;0.00;99.90;;;;;;4983618;28;20050;-68
2021/12/23 00:23:52;;;;;;;19.80;7.80;;;0.00;99.90;;;;;;4993800;28;20683;-68
2021/12/23 00:26:18;;;;;;;17.83;8.63;;;0.00;99.90;;;;;;4988752;28;20048;-68
2021/12/23 00:28:44;;;;;;;16.17;8.73;;;0.10;99.90;;;;;;4982784;28;20124;-68
2021/12/23 00:31:09;;;;;;;20.00;8.53;;;0.00;99.90;;;;;;4981793;28;20030;-68
2021/12/23 00:33:36;;;;;;;15.97;8.30;;;0.10;99.90;;;;;;4986755;28;20041;-68
2021/12/23 00:36:05;;;;;;;17.33;8.80;;;0.10;99.90;;;;;;4971789;28;20099;-68
2021/12/23 00:38:41;;;;;;;16.75;8.80;;;0.10;99.90;;;;;;4997198;28;20048;-68
2021/12/23 00:41:08;;;;;;;17.35;8.27;;;0.10;99.90;;;;;;4983400;28;20050;-68
2021/12/23 00:43:34;;;;;;;;;;;0.10;99.90;;;;;;4969964;28;20049;-68
2021/12/23 00:46:00;;;;;;;14.35;7.82;;;0.10;99.90;;;;;;4983811;28;19922;-68
2021/12/23 00:48:27;;;;;;;15.32;8.43;;;0.10;99.90;;;;;;4991582;28;20037;-68
2021/12/23 00:50:53;;;;;;;16.83;8.65;;;0.10;99.90;;;;;;5007843;28;20046;-68
2021/12/23 00:53:21;;;;;;;17.00;8.17;;;0.10;99.90;;;;;;4999394;28;20065;-68
2021/12/23 00:55:51;;;;;;;18.85;8.82;;;0.10;99.90;;;;;;4988439;28;20050;-68
2021/12/23 00:58:20;;;;;;;18.00;9.45;;;0.10;99.90;;;;;;4999893;28;20146;-68
2021/12/23 01:00:48;;;;;;;16.13;8.10;;;0.20;99.90;;;;;;5008431;28;20029;-68
2021/12/23 01:03:14;;;;;;;18.60;8.57;;;0.20;99.90;;;;;;4986686;28;20054;-68
2021/12/23 01:05:41;;;;;;;16.17;8.48;;;0.20;99.90;;;;;;5008362;28;20059;-68
2021/12/23 01:08:07;;;;;;;;;;;0.30;99.90;;;;;;4993510;28;20549;-68
2021/12/23 01:10:34;;;;;;;17.08;8.93;;;0.20;99.90;;;;;;4991583;28;19928;-68
2021/12/23 01:13:02;;;;;;;18.98;8.48;;;0.20;99.90;;;;;;4989444;28;20037;-68
2021/12/23 01:18:08;;;;;;;18.65;9.60;;;0.20;99.90;;;;;;5002742;28;20048;-68
2021/12/23 01:20:45;;;;;;;15.48;8.35;;;0.20;99.90;;;;;;4972739;28;20042;-68
2021/12/23 01:23:12;;;;;;;20.70;8.43;;;0.20;99.90;;;;;;4988304;28;20061;-68
2021/12/23 01:25:40;;;;;;;14.18;8.48;;;0.20;99.90;;;;;;4992748;28;20440;-68
2021/12/23 01:28:07;;;;;;;17.50;9.37;;;0.20;99.90;;;;;;4992936;28;20080;-68
2021/12/23 01:30:37;;;;;;;18.58;9.40;;;0.20;99.90;;;;;;4991404;28;20092;-68
2021/12/23 01:33:04;;;;;;;18.85;9.05;;;0.10;99.90;;;;;;4988125;28;20485;-68
2021/12/23 01:35:29;;;;;;;16.73;8.45;;;0.20;99.90;;;;;;5002850;28;20049;-68
2021/12/23 01:37:55;;;;;;;17.83;8.43;;;0.10;99.90;;;;;;5001920;28;20534;-68
2021/12/23 01:40:24;;;;;;;17.43;9.10;;;0.10;99.90;;;;;;5004770;28;20042;-68
2021/12/23 01:42:50;;;;;;;18.55;9.50;;;0.10;99.90;;;;;;5000195;28;20042;-68
2021/12/23 01:45:20;;;;;;;17.90;9.02;;;0.10;99.90;;;;;;5005465;28;20044;-68
2021/12/23 01:47:46;;;;;;;15.27;8.57;;;0.10;99.90;;;;;;4988673;28;20026;-68
2021/12/23 01:50:15;;;;;;;16.50;8.40;;;0.20;99.90;;;;;;5005654;28;20558;-68
2021/12/23 01:52:41;;;;;;;17.13;7.95;;;0.10;99.90;;;;;;4987890;28;20169;-68
2021/12/23 01:55:12;;;;;;;15.57;8.75;;;0.10;99.90;;;;;;5001221;28;20080;-68
2021/12/23 01:57:40;;;;;;;15.18;8.77;;;0.10;99.90;;;;;;4985175;28;20030;-68
2021/12/23 02:00:11;;;;;;;16.98;8.27;;;0.10;99.90;;;;;;4985564;28;20502;-68
2021/12/23 02:02:37;;;;;;;17.85;9.07;;;0.10;99.90;;;;;;5003347;28;20049;-68
2021/12/23 02:05:03;;;;;;;16.50;8.77;;;0.10;99.90;;;;;;4997571;28;20045;-68
2021/12/23 02:07:29;;;;;;;17.67;9.02;;;0.10;99.90;;;;;;5002805;28;20117;-68
2021/12/23 02:09:58;;;;;;;17.40;9.17;;;0.10;99.90;;;;;;4980444;28;20117;-68
2021/12/23 02:12:24;;;;;;;21.23;9.55;;;0.10;99.90;;;;;;4999465;28;20796;-68
2021/12/23 02:14:50;;;;;;;18.70;8.40;;;0.10;99.90;;;;;;4986270;28;20053;-68
2021/12/23 02:17:15;;;;;;;15.50;9.17;;;0.10;99.90;;;;;;4997617;28;20494;-68
2021/12/23 02:19:41;;;;;;;21.73;9.17;;;0.10;99.90;;;;;;5002657;28;20495;-68
2021/12/23 02:22:07;;;;;;;16.03;8.07;;;0.10;99.90;;;;;;4986468;28;20542;-68
2021/12/23 02:24:32;;;;;;;17.20;7.93;;;0.10;99.90;;;;;;4981192;28;20050;-68
2021/12/23 02:26:58;;;;;;;19.60;8.53;;;0.00;99.90;;;;;;5001570;28;20538;-68
2021/12/23 02:29:23;;;;;;;16.83;8.53;;;0.00;99.90;;;;;;5006663;28;20112;-68
2021/12/23 02:31:51;;;;;;;18.67;8.70;;;0.00;99.90;;;;;;4987010;28;20048;-68
2021/12/23 02:34:18;;;;;;;21.73;9.02;;;0.10;99.90;;;;;;4979668;28;20053;-68
2021/12/23 02:36:56;;;;;;;17.10;9.18;;;0.10;99.90;;;;;;4986611;28;20136;-68
2021/12/23 02:39:26;;;;;;;18.13;9.27;;;0.10;99.90;;;;;;5004075;28;20069;-68
2021/12/23 02:41:52;;;;;;;16.17;8.95;;;0.10;99.90;;;;;;4983675;28;20041;-69
2021/12/23 02:44:18;;;;;;;18.50;9.38;;;0.10;99.90;;;;;;5000327;28;20398;-68
2021/12/23 02:46:44;;;;;;;19.10;9.27;;;0.10;99.90;;;;;;4987444;28;20197;-68
2021/12/23 02:49:11;;;;;;;17.58;9.75;;;0.00;99.90;;;;;;4983378;28;20518;-69
2021/12/23 02:51:37;;;;;;;19.17;8.88;;;0.10;99.90;;;;;;5003359;28;20044;-68
2021/12/23 02:54:03;;;;;;;20.48;9.77;;;0.10;99.90;;;;;;4984590;28;20037;-68
2021/12/23 02:56:29;;;;;;;18.48;9.15;;;0.10;99.90;;;;;;4984944;28;20038;-68
2021/12/23 02:58:55;;;;;;;19.67;9.67;;;0.10;99.90;;;;;;4998279;28;20509;-68
2021/12/23 03:01:22;;;;;;;17.93;9.07;;;0.10;99.90;;;;;;4984889;28;20044;-68
2021/12/23 03:03:48;;;;;;;16.73;9.07;;;0.10;99.90;;;;;;4984548;28;20034;-69
2021/12/23 03:06:18;;;;;;;16.23;8.93;;;0.10;99.90;;;;;;4986713;28;20045;-68
2021/12/23 03:08:46;;;;;;;19.40;9.48;;;0.10;99.90;;;;;;4999480;28;20525;-68
2021/12/23 03:11:19;;;;;;;22.67;10.07;;;0.10;99.90;;;;;;4995338;28;20484;-68
2021/12/23 03:13:46;;;;;;;16.30;9.25;;;0.10;99.90;;;;;;4984062;28;20053;-69
2021/12/23 03:16:22;;;;;;;19.77;10.23;;;0.10;99.90;;;;;;5018685;23;20049;-82
2021/12/23 03:21:51;;;;;;;20.45;10.40;;;0.10;99.90;;;;;;5015302;28;20088;-84
2021/12/23 03:24:16;;;;;;;19.42;9.98;;;0.20;99.90;;;;;;5030323;28;20036;-84
2021/12/23 03:26:44;;;;;;;21.57;10.73;;;0.10;99.90;;;;;;5001103;28;20455;-83
2021/12/23 03:29:19;;;;;;;;;;;0.10;99.90;;;;;;4975894;28;20077;-83
2021/12/23 03:31:45;;;;;;;19.42;8.55;;;0.10;99.90;;;;;;5011900;28;20379;-84
2021/12/23 03:34:20;;;;;;;20.15;10.57;;;0.10;99.90;;;;;;5010299;28;20042;-83
2021/12/23 03:36:59;;;;;;;;;;;;;;;;;;;;;
2021/12/23 03:39:27;;;;;;;20.42;9.60;;;0.20;99.90;;;;;;4988792;28;20096;-83
2021/12/23 03:41:53;;;;;;;17.25;9.15;;;0.20;99.90;;;;;;4975777;28;20098;-84
2021/12/23 03:44:22;;;;;;;16.90;8.33;;;0.20;99.90;;;;;;4991633;28;20583;-83
2021/12/23 03:46:48;;;;;;;18.25;8.82;;;0.20;99.90;;;;;;4979150;28;20054;-84
2021/12/23 03:49:23;;;;;;;18.83;9.47;;;0.20;99.90;;;;;;4990495;28;20055;-83
2021/12/23 03:51:51;;;;;;;18.00;8.80;;;0.20;99.90;;;;;;4994846;28;20088;-84
2021/12/23 03:54:20;;;;;;;16.33;8.82;;;0.20;99.90;;;;;;4986659;28;20065;-84
2021/12/23 03:56:48;;;;;;;19.10;9.57;;;0.30;99.90;;;;;;5009257;28;20038;-83
2021/12/23 03:59:16;;;;;;;19.10;8.93;;;0.30;99.90;;;;;;4974251;28;20042;-83
2021/12/23 04:01:45;;;;;;;18.75;9.27;;;0.30;99.90;;;;;;4993041;28;20656;-84
2021/12/23 04:04:18;;;;;;;16.70;8.80;;;0.30;99.90;;;;;;4979958;28;20037;-84
2021/12/23 04:06:56;;;;;;;16.15;9.25;;;0.30;99.90;;;;;;4990741;28;20301;-84
2021/12/23 04:09:25;;;;;;;20.63;9.55;;;0.30;99.90;;;;;;4994560;28;20029;-82
2021/12/23 04:11:56;;;;;;;19.63;9.90;;;0.30;99.90;;;;;;4977395;28;20495;-83
2021/12/23 04:14:54;;;;;;;17.67;9.10;;;0.30;99.90;;;;;;4979404;28;20065;-83
2021/12/23 04:17:28;;;;;;;22.63;11.10;;;0.20;99.90;;;;;;4990894;28;20680;-83
2021/12/23 04:19:59;;;;;;;19.08;9.57;;;0.30;99.90;;;;;;4993974;28;20096;-84
2021/12/23 04:22:28;;;;;;;20.58;10.32;;;0.30;99.90;;;;;;4994454;28;20076;-84
2021/12/23 04:25:02;;;;;;;21.47;9.50;;;0.30;99.90;;;;;;4995195;28;20050;-83
2021/12/23 04:27:46;;;;;;;;;;;;;;;;;;;;;
2021/12/23 04:30:13;;;;;;;20.63;9.70;;;0.30;99.90;;;;;;4993492;28;20056;-84
2021/12/23 04:32:39;;;;;;;;;;;0.30;99.90;;;;;;4996554;28;20033;-83
2021/12/23 04:35:05;;;;;;;16.25;8.65;;;0.30;99.90;;;;;;4990151;28;19957;-83
2021/12/23 04:37:35;;;;;;;18.38;9.68;;;0.30;99.90;;;;;;4989947;28;20038;-83
2021/12/23 04:40:30;;;;;;;17.98;9.45;;;0.30;99.90;;;;;;4988349;28;20077;-83
2021/12/23 04:43:08;;;;;;;18.83;8.90;;;0.30;99.90;;;;;;5001068;28;20081;-83
2021/12/23 04:45:46;;;;;;;16.73;9.40;;;0.30;99.90;;;;;;4974085;28;20064;-84
2021/12/23 04:48:14;;;;;;;19.40;10.02;;;0.30;99.90;;;;;;4998673;28;20164;-83
2021/12/23 04:50:47;;;;;;;22.48;10.55;;;0.30;99.90;;;;;;4995292;28;20036;-83
2021/12/23 04:53:13;;;;;;;15.82;8.90;;;0.30;99.90;;;;;;5014730;28;20037;-81
2021/12/23 04:55:47;;;;;;;18.47;9.80;;;0.30;99.90;;;;;;4974513;28;20038;-83
2021/12/23 04:58:13;;;;;;;23.50;10.52;;;0.30;99.90;;;;;;4981467;28;20384;-83
2021/12/23 05:00:47;;;;;;;21.17;10.93;;;0.30;99.90;;;;;;4996866;28;20052;-82
2021/12/23 05:03:19;;;;;;;19.58;10.93;;;0.30;99.90;;;;;;4996872;28;20034;-82
2021/12/23 05:05:56;;;;;;;17.90;9.75;;;0.40;99.90;;;;;;4990573;28;20144;-83
2021/12/23 05:08:21;;;;;;;20.63;10.40;;;0.40;99.90;;;;;;4979662;28;20029;-83
2021/12/23 05:10:47;;;;;;;21.57;10.40;;;0.30;99.90;;;;;;4989083;28;20049;-83
2021/12/23 05:13:21;;;;;;;21.53;10.33;;;0.30;99.90;;;;;;4989344;28;20049;-83
2021/12/23 05:15:52;;;;;;;20.77;9.85;;;0.40;99.90;;;;;;4977357;28;20069;-83
2021/12/23 05:18:26;;;;;;;20.23;10.13;;;0.40;99.90;;;;;;5000592;28;20434;-83
2021/12/23 05:20:55;;;;;;;;;;;0.40;99.90;;;;;;4975819;28;20038;-83
2021/12/23 05:23:21;;;;;;;18.77;9.23;;;0.30;99.90;;;;;;4992918;28;19924;-81
2021/12/23 05:26:12;;;;;;;20.42;10.13;;;0.40;99.90;;;;;;4992983;28;20116;-83
2021/12/23 05:28:50;;;;;;;21.73;9.60;;;0.40;99.90;;;;;;5018490;28;20060;-83
2021/12/23 05:31:18;;;;;;;23.93;10.83;;;0.40;99.90;;;;;;4990478;28;20034;-83
2021/12/23 05:33:44;;;;;;;20.23;11.43;;;0.50;99.90;;;;;;4995143;28;21079;-82
2021/12/23 05:36:14;;;;;;;20.73;11.20;;;0.50;99.90;;;;;;4993910;28;20038;-83
2021/12/23 05:39:00;;;;;;;21.80;10.18;;;0.50;99.90;;;;;;4995489;28;20036;-82
2021/12/23 05:41:38;;;;;;;22.75;10.73;;;0.50;99.90;;;;;;4995934;28;20105;-83
2021/12/23 05:44:10;;;;;;;21.05;10.98;;;0.50;99.90;;;;;;4976839;28;20042;-83
2021/12/23 05:46:43;;;;;;;23.95;11.73;;;0.50;99.90;;;;;;4994269;28;20058;-83
2021/12/23 05:49:26;;;;;;;25.90;11.07;;;0.50;99.90;;;;;;4993029;28;20495;-84
2021/12/23 05:52:06;;;;;;;27.02;11.57;;;0.60;99.90;;;;;;5017379;28;20041;-82
2021/12/23 05:54:34;;;;;;;24.30;12.20;;;0.60;99.90;;;;;;4991789;28;20500;-83
2021/12/23 05:57:05;;;;;;;24.38;10.88;;;0.60;99.90;;;;;;4983853;28;20049;-84
2021/12/23 05:59:38;;;;;;;22.75;10.98;;;0.60;99.90;;;;;;5014700;28;20034;-82
2021/12/23 06:02:05;;;;;;;26.80;11.32;;;0.60;99.90;;;;;;4996377;28;20130;-83
2021/12/23 06:04:32;;;;;;;24.92;11.27;;;0.60;99.90;;;;;;4999577;28;20471;-83
2021/12/23 06:06:58;;;;;;;23.30;11.27;;;0.70;99.90;;;;;;4987521;28;20045;-82
2021/12/23 06:09:24;;;;;;;22.10;11.43;;;0.70;99.90;;;;;;4998066;28;20129;-83
2021/12/23 06:11:49;;;;;;;23.90;11.33;;;0.70;99.90;;;;;;4999264;28;20041;-83
2021/12/23 06:14:16;;;;;;;22.83;11.67;;;0.70;99.90;;;;;;4985998;28;20045;-83
2021/12/23 06:16:45;;;;;;;22.95;11.45;;;0.70;99.90;;;;;;4996780;28;20405;-82
2021/12/23 06:19:10;;;;;;;22.15;10.95;;;0.70;99.90;;;;;;5000506;28;20040;-83
2021/12/23 06:21:44;;;;;;;23.43;12.03;;;0.70;99.90;;;;;;4997340;28;20046;-83
2021/12/23 06:24:09;;;;;;;22.85;11.75;;;0.70;99.90;;;;;;5008063;28;20038;-83
2021/12/23 06:26:35;;;;;;;20.93;11.63;;;0.70;99.90;;;;;;4979828;28;20092;-83
2021/12/23 06:29:00;;;;;;;21.00;11.37;;;0.70;99.90;;;;;;4982678;28;20603;-83
2021/12/23 06:31:26;;;;;;;24.33;11.77;;;0.70;99.90;;;;;;4974127;28;20046;-82
2021/12/23 06:33:51;;;;;;;26.60;11.93;;;0.70;99.90;;;;;;4981684;28;20059;-82
2021/12/23 06:36:17;;;;;;;23.17;11.23;;;0.70;99.90;;;;;;4983468;28;20037;-83
2021/12/23 06:38:47;;;;;;;23.60;12.07;;;0.70;99.90;;;;;;4997608;28;20067;-82
2021/12/23 06:41:13;;;;;;;23.67;11.80;;;0.70;99.90;;;;;;4993450;28;20542;-82
2021/12/23 06:43:39;;;;;;;22.60;10.80;;;0.70;99.90;;;;;;4996806;28;20029;-82
2021/12/23 06:46:07;;;;;;;25.63;11.82;;;0.70;99.90;;;;;;4997701;28;20049;-83
2021/12/23 06:48:33;;;;;;;21.02;11.60;;;0.70;99.90;;;;;;4997522;28;20038;-83
2021/12/23 06:51:00;;;;;;;23.05;11.80;;;0.70;99.90;;;;;;4985375;28;20025;-83
2021/12/23 06:53:26;;;;;;;;;;;0.80;99.90;;;;;;4989049;28;20125;-82
2021/12/23 06:55:52;;;;;;;25.85;11.63;;;0.70;99.90;;;;;;4995305;28;19921;-83
2021/12/23 06:58:18;;;;;;;23.23;12.10;;;0.70;99.90;;;;;;4977653;28;20030;-83
2021/12/23 07:00:45;;;;;;;24.85;11.77;;;0.70;99.90;;;;;;4993828;28;20064;-82
2021/12/23 07:03:11;;;;;;;22.60;12.32;;;0.80;99.90;;;;;;4999710;28;20100;-82
2021/12/23 07:05:37;;;;;;;27.67;12.55;;;0.70;99.90;;;;;;4993680;28;20046;-82
2021/12/23 07:08:11;;;;;;;23.27;11.80;;;0.70;99.90;;;;;;4978473;28;20415;-83
2021/12/23 07:10:38;;;;;;;24.70;11.80;;;0.80;99.90;;;;;;4986620;28;20510;-81
2021/12/23 07:13:07;;;;;;;;;;;0.80;99.90;;;;;;4976753;28;20055;-83
2021/12/23 07:15:33;;;;;;;21.88;11.07;;;0.70;99.90;;;;;;4989148;28;20418;-82
2021/12/23 07:18:00;;;;;;;24.83;11.35;;;0.70;99.90;;;;;;4998027;28;20076;-82
2021/12/23 07:20:28;;;;;;;27.73;11.95;;;0.70;99.90;;;;;;4985179;28;20041;-82
2021/12/23 07:22:54;;;;;;;23.65;11.27;;;0.70;99.90;;;;;;5000851;28;20085;-82
2021/12/23 07:25:20;;;;;;;21.67;11.00;;;0.70;99.90;;;;;;4991415;28;20038;-82
2021/12/23 07:27:46;;;;;;;24.58;12.90;;;0.70;99.90;;;;;;4993355;28;20125;-83
2021/12/23 07:30:14;;;;;;;23.73;11.57;;;0.70;99.90;;;;;;4978745;28;20125;-83
2021/12/23 07:32:40;;;;;;;23.90;12.20;;;0.70;99.90;;;;;;4997520;28;20033;-82
2021/12/23 07:35:07;;;;;;;25.30;12.77;;;0.70;99.90;;;;;;4993962;28;20040;-82
2021/12/23 07:37:32;;;;;;;;;;;0.70;99.90;;;;;;4980727;28;20046;-82
2021/12/23 07:39:58;;;;;;;25.13;12.48;;;0.70;99.90;;;;;;4993836;28;20299;-83
2021/12/23 07:42:28;;;;;;;22.60;11.77;;;0.70;99.90;;;;;;5002610;28;20133;-83
2021/12/23 07:44:54;;;;;;;25.35;12.20;;;0.60;99.90;;;;;;5002202;28;20077;-82
2021/12/23 07:47:20;;;;;;;24.30;12.13;;;0.70;99.90;;;;;;4995024;28;20033;-83
2021/12/23 07:49:45;;;;;;;27.10;11.43;;;0.60;99.90;;;;;;4979607;28;20060;-83
2021/12/23 07:52:11;;;;;;;23.57;12.23;;;0.60;99.90;;;;;;4977426;28;20040;-83
2021/12/23 07:54:40;;;;;;;23.93;11.90;;;0.60;99.90;;;;;;4991659;28;20421;-82
2021/12/23 07:57:08;;;;;;;27.08;13.65;;;0.60;99.90;;;;;;4988342;28;20551;-81
2021/12/23 07:59:34;;;;;;;25.93;11.73;;;0.60;99.90;;;;;;4982287;28;20082;-82
2021/12/23 08:02:00;;;;;;;26.77;13.13;;;0.60;99.90;;;;;;4998025;28;20034;-82
2021/12/23 08:04:25;;;;;;;28.20;12.93;;;0.60;99.90;;;;;;4999703;28;20080;-83
2021/12/23 08:06:57;;;;;;;22.88;12.52;;;0.60;99.90;;;;;;4992104;28;20042;-83
2021/12/23 08:09:24;;;;;;;33.38;13.23;;;0.60;99.90;;;;;;4998441;28;20124;-82
2021/12/23 08:11:50;;;;;;;30.60;13.27;;;0.60;99.90;;;;;;4979543;28;20049;-82
2021/12/23 08:14:16;;;;;;;29.50;14.48;;;0.60;99.90;;;;;;4994388;28;20037;-82
2021/12/23 08:16:43;;;;;;;24.52;13.30;;;0.60;99.90;;;;;;4999267;28;20029;-82
2021/12/23 08:19:09;;;;;;;31.20;14.40;;;0.60;99.90;;;;;;4982990;28;20073;-83
2021/12/23 08:21:35;;;;;;;26.63;13.43;;;0.70;99.90;;;;;;4981139;28;20137;-83
2021/12/23 08:24:00;;;;;;;28.53;13.70;;;0.60;99.90;;;;;;4980242;28;20121;-83
2021/12/23 08:26:29;;;;;;;30.63;13.63;;;0.60;99.90;;;;;;4979953;28;20060;-83
2021/12/23 08:28:56;;;;;;;32.38;15.57;;;0.60;99.90;;;;;;5001145;28;20072;-82
2021/12/23 08:31:23;;;;;;;29.50;14.25;;;0.60;99.90;;;;;;4991867;28;20068;-83
2021/12/23 08:33:50;;;;;;;31.58;14.07;;;0.60;99.90;;;;;;4990308;28;20487;-83
2021/12/23 08:36:16;;;;;;;30.67;15.73;;;0.60;99.90;;;;;;4994012;28;20084;-83
2021/12/23 08:38:43;;;;;;;31.60;14.68;;;0.60;99.90;;;;;;5000942;28;20069;-82
2021/12/23 08:41:19;;;;;;;33.50;15.00;;;0.60;99.90;;;;;;4977283;28;20045;-83
2021/12/23 08:43:45;;;;;;;29.80;15.25;;;0.50;99.90;;;;;;4988980;28;20041;-83
2021/12/23 08:46:12;;;;;;;30.77;15.30;;;0.60;99.90;;;;;;4988567;28;20049;-83
2021/12/23 08:48:40;;;;;;;32.75;15.48;;;0.60;99.90;;;;;;4989632;28;20034;-82
2021/12/23 08:51:09;;;;;;;31.90;16.17;;;0.60;99.90;;;;;;4998509;28;20033;-82
2021/12/23 08:53:34;;;;;;;35.30;16.60;;;0.60;99.90;;;;;;4979726;28;20057;-82
2021/12/23 08:56:08;;;;;;;29.50;15.17;;;0.60;99.90;;;;;;5000287;28;20033;-83
2021/12/23 08:58:35;;;;;;;37.65;16.42;;;0.60;99.90;;;;;;5004584;28;20514;-82
2021/12/23 09:01:07;;;;;;;37.78;16.50;;;0.60;99.90;;;;;;5000324;28;20037;-83
2021/12/23 09:03:38;;;;;;;35.15;16.38;;;0.60;99.90;;;;;;4995682;28;20104;-83
2021/12/23 09:06:05;;;;;;;35.88;16.85;;;0.60;99.90;;;;;;4977818;28;20038;-83
2021/12/23 09:08:31;;;;;;;35.90;16.88;;;0.60;99.90;;;;;;5000203;28;20038;-82
2021/12/23 09:11:27;;;;;;;;;;;;;;;;;;;;;
2021/12/23 09:13:58;;;;;;;35.80;17.23;;;0.60;99.90;;;;;;5012913;28;20038;-82
2021/12/23 09:19:08;;;;;;;40.45;18.40;;;0.60;99.90;;;;;;5029690;28;20045;-87
2021/12/23 09:22:00;;;;;;;36.88;17.73;;;0.60;99.90;;;;;;4998150;28;20062;-88
2021/12/23 09:24:31;;;;;;;42.80;18.40;;;0.60;99.90;;;;;;5008817;28;20045;-88
2021/12/23 09:27:34;;;;;;;39.35;19.10;;;0.60;99.90;;;;;;5014912;28;20068;-86
2021/12/23 09:32:56;;;;;;;41.47;19.25;;;0.70;99.90;;;;;;5028565;28;20037;-88
2021/12/23 09:35:38;;;;;;;46.10;19.48;;;0.70;99.90;;;;;;4998201;28;20102;-88
2021/12/23 09:38:30;;;;;;;51.80;22.25;;;0.80;99.90;;;;;;5013583;28;20071;-88
2021/12/23 09:41:10;;;;;;;57.65;20.63;;;0.70;99.90;;;;;;5010898;28;20463;-87
2021/12/23 09:43:40;;;;;;;44.08;20.42;;;0.70;99.90;;;;;;5014144;28;20439;-88
2021/12/23 09:46:09;;;;;;;58.58;23.55;;;0.70;99.90;;;;;;5020626;28;20442;-87
2021/12/23 09:48:38;;;;;;;53.88;21.88;;;0.80;99.90;;;;;;4999891;28;20745;-88
2021/12/23 09:51:29;;;;;;;49.78;21.02;;;0.80;99.90;;;;;;5019043;28;20076;-89
2021/12/23 09:53:58;;;;;;;52.38;22.40;;;0.80;99.90;;;;;;4999257;28;20043;-88
2021/12/23 09:56:33;;;;;;;48.20;21.38;;;0.80;99.90;;;;;;5018780;28;20559;-88
2021/12/23 09:59:00;;;;;;;56.53;21.95;;;0.80;99.90;;;;;;5000569;28;20045;-88
2021/12/23 10:01:34;;;;;;;47.80;19.92;;;0.80;99.90;;;;;;5016883;28;20041;-88
2021/12/23 10:04:02;;;;;;;48.30;21.00;;;0.90;99.90;;;;;;5016914;28;20045;-88
2021/12/23 10:06:31;;;;;;;49.85;21.58;;;0.90;99.90;;;;;;5013949;28;20399;-88
2021/12/23 10:08:58;;;;;;;50.70;22.48;;;0.80;99.90;;;;;;5010513;28;20045;-88
2021/12/23 10:11:58;;;;;;;;;;;0.80;99.90;;;;;;5015022;28;20084;-87
2021/12/23 10:39:27;;;;;;;53.95;22.23;;;0.90;99.90;;;;;;4998689;28;20128;-90
2021/12/23 10:42:15;;;;;;;51.42;20.20;;;1.00;99.90;;;;;;5014204;28;20403;-90
2021/12/23 10:45:16;;;;;;;55.70;22.33;;;1.00;99.90;;;;;;5014118;28;20041;-89
2021/12/23 10:48:06;;;;;;;52.58;21.65;;;1.00;99.90;;;;;;4999185;28;20119;-89
2021/12/23 10:50:45;;;;;;;58.10;22.35;;;0.90;99.90;;;;;;5013439;28;20041;-89
2021/12/23 10:59:23;;;;;;;52.15;21.30;;;1.00;99.90;;;;;;5013080;28;20095;-86
2021/12/23 11:02:31;;;;;;;55.80;21.85;;;1.00;99.90;;;;;;5015804;28;20037;-89
2021/12/23 11:05:48;;;;;;;51.33;21.15;;;1.00;99.90;;;;;;4999667;28;20308;-89
2021/12/23 11:08:44;;;;;;;52.60;20.27;;;1.00;99.90;;;;;;5005124;28;20095;-89
2021/12/23 11:37:39;;;;;;;54.55;20.63;;;1.00;99.90;;;;;;5028786;28;20068;-88
2021/12/23 11:40:23;;;;;;;53.28;22.73;;;1.10;99.90;;;;;;5002122;28;20411;-89
2021/12/23 11:45:39;;;;;;;48.63;20.40;;;1.10;99.90;;;;;;5018981;28;20538;-88
2021/12/23 11:48:10;;;;;;;53.47;21.63;;;1.10;99.90;;;;;;5015306;23;20044;-71
2021/12/23 11:50:52;;;;;;;53.42;21.25;;;1.10;99.90;;;;;;5048792;28;20049;-71
2021/12/23 11:53:18;;;;;;;57.58;21.40;;;1.10;99.90;;;;;;5023529;28;20045;-69
2021/12/23 11:55:45;;;;;;;57.60;22.80;;;1.10;99.90;;;;;;5008603;28;20042;-70
2021/12/23 11:58:12;;;;;;;55.88;21.85;;;1.20;99.90;;;;;;4999517;28;20077;-70
2021/12/23 12:00:42;;;;;;;55.42;22.58;;;1.20;99.90;;;;;;5017728;28;20038;-68
2021/12/23 12:03:10;;;;;;;51.53;21.75;;;1.20;99.90;;;;;;5001110;28;20052;-68
2021/12/23 12:05:38;;;;;;;53.72;21.70;;;1.20;99.90;;;;;;5016093;28;20054;-68
2021/12/23 12:08:12;;;;;;;54.78;22.33;;;1.20;99.90;;;;;;4998500;28;20037;-68
2021/12/23 12:10:41;;;;;;;57.42;23.85;;;1.20;99.90;;;;;;5003197;28;20352;-68
2021/12/23 12:13:09;;;;;;;56.88;21.73;;;1.20;99.90;;;;;;5021640;28;20044;-68
2021/12/23 12:15:47;;;;;;;51.75;21.27;;;1.30;99.90;;;;;;5012039;28;20041;-71
2021/12/23 12:18:23;;;;;;;58.00;21.50;;;1.30;99.90;;;;;;5002056;28;20121;-69
2021/12/23 12:20:59;;;;;;;51.38;21.52;;;1.30;99.90;;;;;;5008651;28;20044;-71
2021/12/23 12:23:39;;;;;;;53.45;21.17;;;1.30;99.90;;;;;;4998193;28;20117;-72
2021/12/23 12:26:09;;;;;;;53.83;22.70;;;1.30;99.90;;;;;;5012481;28;20456;-70
2021/12/23 12:28:44;;;;;;;59.08;21.95;;;1.30;99.90;;;;;;5002268;28;20046;-74
2021/12/23 12:31:17;;;;;;;53.92;21.83;;;1.30;99.90;;;;;;5012497;28;20402;-73
2021/12/23 12:33:55;;;;;;;50.38;21.05;;;1.30;99.90;;;;;;5006048;28;20033;-69
2021/12/23 12:36:23;;;;;;;56.00;21.17;;;1.30;99.90;;;;;;5022308;28;20049;-73
2021/12/23 12:38:55;;;;;;;52.95;19.55;;;1.30;99.90;;;;;;5013156;28;20046;-71
2021/12/23 12:41:24;;;;;;;56.05;21.77;;;1.40;99.90;;;;;;5008121;28;20045;-72
2021/12/23 12:43:59;;;;;;;57.70;24.20;;;1.30;99.90;;;;;;5030109;28;20131;-71
2021/12/23 12:46:34;;;;;;;56.58;21.25;;;1.30;99.90;;;;;;5016232;28;20049;-74
2021/12/23 12:49:10;;;;;;;59.60;21.92;;;1.40;99.90;;;;;;5010782;28;20109;-74
2021/12/23 12:51:43;;;;;;;54.20;21.05;;;1.40;99.90;;;;;;5020548;28;20053;-75
2021/12/23 12:54:13;;;;;;;54.17;21.45;;;1.30;99.90;;;;;;5012174;28;20387;-76
2021/12/23 12:56:51;;;;;;;52.17;21.25;;;1.40;99.90;;;;;;5009583;28;21401;-69
2021/12/23 12:59:20;;;;;;;53.13;22.13;;;1.40;99.90;;;;;;5003190;28;20042;-68
2021/12/23 13:01:48;;;;;;;50.33;19.88;;;1.40;99.90;;;;;;5000530;28;20034;-68
2021/12/23 13:04:34;;;;;;;51.20;22.40;;;1.40;99.90;;;;;;5004203;28;20501;-68
2021/12/23 13:07:22;;;;;;;47.17;19.58;;;1.40;99.90;;;;;;4997912;28;20107;-68
2021/12/23 13:09:53;;;;;;;50.60;21.25;;;1.40;99.90;;;;;;4988902;28;20052;-68
2021/12/23 13:12:49;;;;;;;54.25;21.20;;;1.40;99.90;;;;;;5020971;28;20049;-68
2021/12/23 13:15:31;;;;;;;50.08;20.52;;;1.40;99.90;;;;;;4987794;28;20045;-68
2021/12/23 13:18:03;;;;;;;54.03;22.08;;;1.40;99.90;;;;;;5012300;28;20057;-68
2021/12/23 13:20:41;;;;;;;49.92;19.98;;;1.40;99.90;;;;;;5001077;28;20041;-68
2021/12/23 13:23:32;;;;;;;56.05;21.23;;;1.40;99.90;;;;;;5009874;28;20414;-68
2021/12/23 13:26:03;;;;;;;53.88;21.60;;;1.40;99.90;;;;;;4986468;28;20038;-69
2021/12/23 13:28:34;;;;;;;50.15;20.50;;;1.40;99.90;;;;;;5024849;28;20397;-68
2021/12/23 13:31:00;;;;;;;50.55;20.77;;;1.40;99.90;;;;;;5006076;28;20036;-68
2021/12/23 13:33:26;;;;;;;53.70;21.77;;;1.50;99.90;;;;;;5001081;28;20421;-68
2021/12/23 13:35:52;;;;;;;57.13;21.63;;;1.50;99.90;;;;;;5024036;28;20040;-68
2021/12/23 13:38:32;;;;;;;47.00;20.77;;;1.40;99.90;;;;;;4992636;28;20525;-69
2021/12/23 13:41:11;;;;;;;47.15;20.35;;;1.50;99.90;;;;;;5006852;28;20049;-69
2021/12/23 13:43:36;;;;;;;47.42;21.15;;;1.50;99.90;;;;;;5024222;28;20040;-69
2021/12/23 13:46:07;;;;;;;51.57;21.53;;;1.50;99.90;;;;;;5006921;28;20045;-70
2021/12/23 13:48:46;;;;;;;58.47;21.52;;;1.50;99.90;;;;;;5000938;28;20087;-69
2021/12/23 13:51:13;;;;;;;54.35;22.15;;;1.50;99.90;;;;;;5014679;28;20061;-69
2021/12/23 13:53:39;;;;;;;50.33;20.13;;;1.60;99.90;;;;;;5022724;28;20037;-69
2021/12/23 13:56:14;;;;;;;54.57;21.60;;;1.60;99.90;;;;;;5018671;28;20047;-69
2021/12/23 13:58:40;;;;;;;54.95;20.88;;;1.60;99.90;;;;;;5005297;28;20072;-69
2021/12/23 14:01:06;;;;;;;54.08;21.95;;;1.60;99.90;;;;;;5022543;28;20508;-69
2021/12/23 14:03:32;;;;;;;52.13;20.90;;;1.60;99.90;;;;;;5005262;28;20060;-69
2021/12/23 14:05:58;;;;;;;50.83;20.93;;;1.60;99.90;;;;;;5024435;28;20044;-69
2021/12/23 14:08:25;;;;;;;56.63;22.67;;;1.60;99.90;;;;;;5004128;28;20584;-69
2021/12/23 14:10:51;;;;;;;49.92;22.10;;;1.60;99.90;;;;;;5009090;28;20440;-69
2021/12/23 14:13:19;;;;;;;58.13;22.42;;;1.60;99.90;;;;;;5016147;28;20033;-69
2021/12/23 14:15:47;;;;;;;55.38;22.52;;;1.60;99.90;;;;;;4999482;28;20071;-69
2021/12/23 14:23:40;;;;;;;50.05;20.85;;;1.60;99.90;;;;;;5023767;28;20314;-69
2021/12/23 14:26:15;;;;;;;65.43;23.33;;;1.60;99.90;;;;;;5023451;28;20037;-70